Flight Track Log - Related Links

Times and Time Zones

All times are in EDT time to prevent confusion due to time zone crossing. See the N283PT flight status page for this flight to view local times or setup timezone preferences in your user account.

Time Position Orientation Groundspeed Altitude Reporting Facility
EDT Latitude Longitude Course Direction KTS MPH feet Rate Location/Type
Fri 09:24:06 AM 33.7667 -84.5667 270° West 125 144 1,700  Level Atlanta TRACON
Fri 09:25:06 AM 33.7667 -84.6000 270° West 123 142 2,600 600 Climbing Atlanta TRACON
Fri 09:26:06 AM 33.7667 -84.6500 270° West 139 160 2,900 200 Climbing Atlanta TRACON
Fri 09:27:06 AM 33.7333 -84.6833 220° Southwest 159 183 3,000  Climbing Atlanta TRACON
Fri 09:28:06 AM 33.7000 -84.6833 180° South 158 182 2,900 -50 Descending Atlanta TRACON
Fri 09:29:06 AM 33.6500 -84.6667 164° South 158 182 2,900 250 Level Atlanta TRACON
Fri 09:30:06 AM 33.6167 -84.6667 180° South 145 167 3,400 500 Climbing Atlanta TRACON
Fri 09:31:06 AM 33.5833 -84.6500 157° South 140 161 3,900 750 Climbing Atlanta TRACON
Fri 09:32:06 AM 33.5500 -84.6333 157° South 123 142 4,900 550 Climbing Atlanta TRACON
Fri 09:33:06 AM 33.5167 -84.5833 129° Southeast 172 198 5,000 450 Climbing Atlanta TRACON
Fri 09:34:06 AM 33.5000 -84.5500 121° Southeast 149 171 5,800 750 Climbing Atlanta TRACON
Fri 09:35:06 AM 33.4667 -84.5000 129° Southeast 152 175 6,500 679 Climbing Atlanta TRACON
Fri 09:35:52 AM 33.4492 -84.4794 136° Southeast 143 165 7,000 679 Climbing Atlanta Center
Fri 09:36:52 AM 33.4178 -84.4419 135° Southeast 151 174 7,700 750 Climbing Atlanta Center
Fri 09:37:52 AM 33.3931 -84.4119 135° Southeast 159 183 8,500 750 Climbing Atlanta Center
Fri 09:38:52 AM 33.3617 -84.3719 133° Southeast 152 175 9,200 850 Climbing Atlanta Center
Fri 09:39:52 AM 33.3367 -84.3422 135° Southeast 142 163 10,200 900 Climbing Atlanta Center
Fri 09:40:52 AM 33.3056 -84.3022 133° Southeast 147 169 11,000 800 Climbing Atlanta Center
Fri 09:41:52 AM 33.2764 -84.2675 135° Southeast 147 169 11,800 800 Climbing Atlanta Center
Fri 09:42:52 AM 33.2472 -84.2350 137° Southeast 147 169 12,600 800 Climbing Atlanta Center
Fri 09:43:52 AM 33.2244 -84.1878 120° Southeast 154 177 13,400 800 Climbing Atlanta Center
Fri 09:44:52 AM 33.2014 -84.1456 123° Southeast 159 183 14,200 750 Climbing Atlanta Center
Fri 09:45:52 AM 33.1786 -84.0958 119° Southeast 164 189 14,900 750 Climbing Atlanta Center
Fri 09:46:52 AM 33.1597 -84.0511 117° Southeast 158 182 15,700 750 Climbing Atlanta Center
Fri 09:47:52 AM 33.1306 -84.0067 128° Southeast 163 188 16,400 750 Climbing Atlanta Center
Fri 09:48:52 AM 33.0969 -83.9817 148° Southeast 157 181 17,200 750 Climbing Atlanta Center
Fri 09:49:52 AM 33.0594 -83.9569 151° Southeast 157 181 17,900 550 Climbing Atlanta Center
Fri 09:50:52 AM 33.0219 -83.9347 154° Southeast 157 181 18,300 500 Climbing Atlanta Center
Fri 09:51:52 AM 32.9842 -83.9050 147° Southeast 157 181 18,900 600 Climbing Atlanta Center
Fri 09:52:52 AM 32.9447 -83.8781 150° Southeast 157 181 19,500 550 Climbing Atlanta Center
Fri 09:53:52 AM 32.9008 -83.8508 152° Southeast 157 181 20,000 600 Climbing Atlanta Center
Fri 09:54:52 AM 32.8611 -83.8211 148° Southeast 162 186 20,700 500 Climbing Atlanta Center
Fri 09:55:52 AM 32.8192 -83.7942 152° Southeast 162 186 21,000 150 Climbing Atlanta Center
Fri 09:56:52 AM 32.7692 -83.7647 154° Southeast 173 199 21,000  Level Atlanta Center
Fri 09:57:52 AM 32.7189 -83.7253 147° Southeast 186 214 21,000  Level Atlanta Center
Fri 09:58:52 AM 32.6686 -83.6908 150° Southeast 202 232 21,000  Level Atlanta Center
Fri 09:59:52 AM 32.6164 -83.6567 151° Southeast 212 244 21,000  Level Atlanta Center
Fri 10:00:52 AM 32.5642 -83.6200 149° Southeast 212 244 21,000  Level Atlanta Center
Fri 10:01:52 AM 32.5117 -83.5856 151° Southeast 212 244 21,000  Level Atlanta Center
Fri 10:04:09 AM 32.3989 -83.5028 148° Southeast 216 249 21,000  Level Jacksonville Center
Fri 10:05:09 AM 32.3447 -83.4681 152° Southeast 216 249 21,000  Level Jacksonville Center
Fri 10:06:09 AM 32.2947 -83.4308 148° Southeast 216 249 21,000  Level Jacksonville Center
Fri 10:07:09 AM 32.2428 -83.3961 151° Southeast 216 249 21,000  Level Jacksonville Center
Fri 10:08:09 AM 32.1886 -83.3589 150° Southeast 221 254 21,000  Level Jacksonville Center
Fri 10:09:09 AM 32.1386 -83.3244 150° Southeast 221 254 21,000  Level Jacksonville Center
Fri 10:10:09 AM 32.0886 -83.2897 150° Southeast 215 247 21,000  Level Jacksonville Center
Fri 10:11:09 AM 32.0408 -83.2553 149° Southeast 210 242 21,000  Level Jacksonville Center
Fri 10:12:09 AM 31.9928 -83.2208 149° Southeast 205 236 21,000  Level Jacksonville Center
Fri 10:13:09 AM 31.9469 -83.1792 142° Southeast 205 236 21,000  Level Jacksonville Center
Fri 10:14:09 AM 31.9033 -83.1397 142° Southeast 205 236 21,000  Level Jacksonville Center
Fri 10:15:09 AM 31.8572 -83.1006 144° Southeast 205 236 21,000  Level Jacksonville Center
Fri 10:16:09 AM 31.8072 -83.0589 145° Southeast 205 236 21,000  Level Jacksonville Center
Fri 10:17:09 AM 31.7614 -83.0147 141° Southeast 205 236 21,000  Level Jacksonville Center
Fri 10:18:09 AM 31.7175 -82.9733 141° Southeast 205 236 21,000  Level Jacksonville Center
Fri 10:19:09 AM 31.6717 -82.9317 142° Southeast 199 229 21,000  Level Jacksonville Center
Fri 10:20:09 AM 31.6258 -82.8878 141° Southeast 199 229 21,000  Level Jacksonville Center
Fri 10:21:09 AM 31.5797 -82.8439 141° Southeast 199 229 21,000  Level Jacksonville Center
Fri 10:22:09 AM 31.5317 -82.8025 144° Southeast 204 235 21,000  Level Jacksonville Center
Fri 10:23:09 AM 31.4858 -82.7611 142° Southeast 204 235 21,000  Level Jacksonville Center
Fri 10:24:09 AM 31.4378 -82.7172 142° Southeast 204 235 21,000  Level Jacksonville Center
Fri 10:25:09 AM 31.3958 -82.6758 140° Southeast 204 235 21,000  Level Jacksonville Center
Fri 10:26:09 AM 31.3519 -82.6372 143° Southeast 209 241 21,000  Level Jacksonville Center
Fri 10:27:09 AM 31.3039 -82.5983 145° Southeast 209 241 21,000  Level Jacksonville Center
Fri 10:28:09 AM 31.2600 -82.5522 138° Southeast 215 247 21,000  Level Jacksonville Center
Fri 10:29:09 AM 31.2078 -82.5208 153° Southeast 215 247 21,000  Level Jacksonville Center
Fri 10:30:09 AM 31.1533 -82.4944 157° South 210 242 21,000  Level Jacksonville Center
Fri 10:31:09 AM 31.0989 -82.4656 156° South 210 242 21,000  Level Jacksonville Center
Fri 10:32:09 AM 31.0467 -82.4319 151° Southeast 210 242 21,000  Level Jacksonville Center
Fri 10:33:09 AM 30.9942 -82.4006 153° Southeast 210 242 21,000  Level Jacksonville Center
Fri 10:34:09 AM 30.9419 -82.3694 153° Southeast 210 242 21,000  Level Jacksonville Center
Fri 10:35:09 AM 30.8897 -82.3358 151° Southeast 216 249 21,000  Level Jacksonville Center
Fri 10:36:09 AM 30.8372 -82.3094 157° South 216 249 21,000  Level Jacksonville Center
Fri 10:37:09 AM 30.7869 -82.2758 150° Southeast 216 249 21,000  Level Jacksonville Center
Fri 10:38:09 AM 30.7306 -82.2450 155° Southeast 216 249 21,000  Level Jacksonville Center
Fri 10:39:09 AM 30.6761 -82.2139 154° Southeast 216 249 21,000  Level Jacksonville Center
Fri 10:40:09 AM 30.6236 -82.1828 153° Southeast 216 249 21,000  Level Jacksonville Center
Fri 10:41:09 AM 30.5714 -82.1519 153° Southeast 216 249 21,000 -300 Level Jacksonville Center
Fri 10:42:09 AM 30.5083 -82.1114 151° Southeast 221 254 20,400 -660 Descending Jacksonville Center
Fri 10:42:49 AM 30.4664 -82.0900 156° South 246 283 19,900 -700 Descending Jacksonville Center
Fri 10:43:09 AM 30.4475 -82.0758 147° Southeast 237 273 19,700 -655 Descending Jacksonville Center
Fri 10:43:44 AM 30.4119 -82.0567 155° Southeast 242 278 19,300 -800 Descending Jacksonville Center
Fri 10:44:09 AM 30.3889 -82.0400 148° Southeast 242 278 18,900 -885 Descending Jacksonville Center
Fri 10:44:45 AM 30.3492 -82.0236 160° South 251 289 18,400 -700 Descending Jacksonville Center
Fri 10:45:09 AM 30.3239 -82.0022 144° Southeast 242 278 18,200 -590 Descending Jacksonville Center
Fri 10:45:46 AM 30.2883 -81.9856 158° South 245 282 17,800 -400 Descending Jacksonville Center
Fri 10:46:09 AM 30.2653 -81.9667 145° Southeast 242 278 17,800 -327 Level Jacksonville Center
Fri 10:46:41 AM 30.2339 -81.9525 159° South 242 278 17,500 -700 Descending Jacksonville Center
Fri 10:47:09 AM 30.2067 -81.9336 149° Southeast 242 278 17,100 -984 Descending Jacksonville Center
Fri 10:47:42 AM 30.1689 -81.9194 162° South 242 278 16,500 -1,000 Descending Jacksonville Center
Fri 10:48:09 AM 30.1458 -81.9006 145° Southeast 242 278 16,100 -896 Descending Jacksonville Center
Fri 10:48:49 AM 30.1039 -81.8817 159° South 240 276 15,500 -800 Descending Jacksonville Center
Fri 10:49:09 AM 30.0869 -81.8700 149° Southeast 237 273 15,300 -764 Descending Jacksonville Center
Fri 10:49:44 AM 30.0536 -81.8511 154° Southeast 229 264 14,800 -900 Descending Jacksonville Center
Fri 10:50:09 AM 30.0325 -81.8369 150° Southeast 237 273 14,400 -896 Descending Jacksonville Center
Fri 10:50:51 AM 29.9883 -81.8158 158° South 221 254 13,800 -900 Descending Jacksonville Center
Fri 10:51:09 AM 29.9758 -81.8064 147° Southeast 237 273 13,500 -1,309 Descending Jacksonville Center
Fri 10:51:46 AM 29.9361 -81.7875 158° South 227 261 12,600 -1,300 Descending Jacksonville Center
Fri 10:52:09 AM 29.9150 -81.7736 150° Southeast 232 267 12,200 -977 Descending Jacksonville Center
Fri 10:52:29 AM 29.9003 -81.7642 151° Southeast 234 269 11,900 -947 Descending Jacksonville Center
Fri 10:52:47 AM 29.8814 -81.7547 157° South 236 272 11,600 -1,215 Descending Jacksonville Center
Fri 10:53:48 AM 29.8247 -81.7172 150° Southeast 216 249 10,300 -738 Descending Jacksonville Center
Fri 10:54:49 AM 29.7744 -81.6914 156° South 195 224 10,100 -98 Descending Jacksonville Center
Fri 10:55:50 AM 29.7283 -81.6681 156° South 184 212 10,100  Level Jacksonville Center
Fri 10:56:51 AM 29.6842 -81.6375 149° Southeast 181 208 10,100  Level Jacksonville Center
Fri 10:57:52 AM 29.6381 -81.6142 156° South 183 211 10,100  Level Jacksonville Center
Fri 10:58:53 AM 29.5897 -81.5861 153° Southeast 183 211 10,100  Level Jacksonville Center
Fri 10:59:54 AM 29.5414 -81.5581 153° Southeast 183 211 10,100  Level Jacksonville Center
Fri 11:00:54 AM 29.4972 -81.5325 153° Southeast 183 211 10,100  Level Jacksonville Center
Fri 11:01:55 AM 29.4531 -81.5069 153° Southeast 184 212 10,100 -443 Level Jacksonville Center
Fri 11:02:56 AM 29.4275 -81.4428 115° Southeast 207 238 9,200 -885 Descending Jacksonville Center
Fri 11:03:57 AM 29.4119 -81.3811 106° East 207 238 8,300 -1,033 Descending Jacksonville Center
Fri 11:04:58 AM 29.3989 -81.3169 103° East 204 235 7,100 -1,279 Descending Jacksonville Center
Fri 11:05:59 AM 29.3792 -81.2600 112° Southeast 199 229 5,700 -1,180 Descending Jacksonville Center
Fri 11:07:00 AM 29.3333 -81.2536 173° South 167 192 4,700 -787 Descending Jacksonville Center
Fri 11:08:01 AM 29.2878 -81.2856 211° Southwest 186 214 4,100 -344 Descending Jacksonville Center
Fri 11:09:02 AM 29.2442 -81.3122 208° Southwest 170 196 4,000 -393 Descending Jacksonville Center
Fri 11:10:03 AM 29.1961 -81.3036 171° South 179 206 3,300 -689 Descending Jacksonville Center

Login

Don't have an account? Register now (free) for customized features, flight alerts, and more!